Garwin, Iowa
Current Conditions -  °F | °C
As of 7:53 AM on Wednesday 22 Oct 2014 (Local Time) from KMIW Reporting Station
Clear Clear  
Wind Chill: -1°   Ceiling: Unl
Heat Index:   Visibility: 7mi
Dew Point:   Wind: 14mph
Humidity: 93%   Direction: 140°SE
Pressure: 30.26"   Gusts: NA
Location:  42.09°N, 92.68°W
Report Text: KMIW 221253Z AUTO 14012KT 7SM CLR 04/03 A3026 RMK AO2 SLP252 T00390028
Loading
Personal Weather Stations






























Interactive Weather Map
Tropical Storm Tracking
New forecast layout! Learn more

10-Day Weather Forecast

Advertisements
Track Severe Weather on mobile